Terminal Aerodrome Forecast
Issued by NWS

Home | Current Version | Previous Version | Text Only | Print | Product List | Glossary On
Versions: 1 2 3 4 5 6 7 8 9 10 11 12 13 14 15 16 17 18 19 20 21 22 23 24 25 26 27 28 29 30 31 32 33 34 35 36 37 38 39 40 41
000
FTUS44 KFWD 270532
TAFDAL
TAF
KDAL 270532Z 2706/2806 05014KT 6SM -TSRA BKN035CB BKN080
      TEMPO 2706/2708 4SM -TSRA BKN035CB
     FM270900 05012KT P6SM VCTS BKN020CB OVC080
     FM271200 07010KT P6SM VCSH OVC009
     FM271600 09010KT 5SM -RA BR VCTS BKN008CB
     FM271900 06010KT 5SM -SHRA BR VCTS BKN008CB PROB30 2719/2723
      4SM TSRA BKN008CB
     FM280000 03010KT 5SM -RA BR OVC006=

USA.gov is the U.S. government's official web portal to all federal, state and local government web resources and services.